createdAt,value
2022-09-06T00:01:20.027Z,2.38
2022-09-06T00:03:46.655Z,2.40
2022-09-06T00:06:17.520Z,2.20
2022-09-06T00:08:45.541Z,1.75
2022-09-06T00:11:12.876Z,2.30
2022-09-06T00:13:39.890Z,2.45
2022-09-06T00:16:12.514Z,2.60
2022-09-06T00:18:39.749Z,2.00
2022-09-06T00:21:18.279Z,2.40
2022-09-06T00:23:45.121Z,2.35
2022-09-06T00:26:12.345Z,2.17
2022-09-06T00:28:39.693Z,2.17
2022-09-06T00:31:13.630Z,2.27
2022-09-06T00:33:40.610Z,2.33
2022-09-06T00:36:08.189Z,2.20
2022-09-06T00:38:35.308Z,2.50
2022-09-06T00:41:01.834Z,2.38
2022-09-06T00:43:28.780Z,2.33
2022-09-06T00:45:56.135Z,2.50
2022-09-06T00:48:23.651Z,2.53
2022-09-06T00:51:00.705Z,2.70
2022-09-06T00:53:28.037Z,2.75
2022-09-06T00:55:54.927Z,2.50
2022-09-06T00:58:22.625Z,2.45
2022-09-06T01:00:49.131Z,2.40
2022-09-06T01:03:15.786Z,2.47
2022-09-06T01:06:17.373Z,2.58
2022-09-06T01:09:32.115Z,2.10
2022-09-06T01:12:10.561Z,2.22
2022-09-06T01:14:44.137Z,3.15
2022-09-06T01:17:28.833Z,2.92
2022-09-06T01:20:18.070Z,3.17
2022-09-06T01:23:26.320Z,3.43
2022-09-06T01:26:11.909Z,3.22
2022-09-06T01:28:46.727Z,3.33
2022-09-06T01:31:38.872Z,3.53
2022-09-06T01:34:08.134Z,4.25
2022-09-06T01:36:59.990Z,3.20
2022-09-06T01:39:33.166Z,4.15
2022-09-06T01:42:07.649Z,3.63
2022-09-06T01:44:36.121Z,3.70
2022-09-06T01:47:09.733Z,4.00
2022-09-06T01:49:59.709Z,3.60
2022-09-06T01:52:42.392Z,4.10
2022-09-06T01:55:32.109Z,4.38
2022-09-06T01:58:13.626Z,4.30
2022-09-06T02:01:05.957Z,4.15
2022-09-06T02:03:50.003Z,3.97
2022-09-06T02:06:28.402Z,4.47
2022-09-06T02:09:19.460Z,5.07
2022-09-06T02:11:52.990Z,4.40
2022-09-06T02:14:31.324Z,4.65
2022-09-06T02:17:00.279Z,4.70
2022-09-06T02:19:35.316Z,4.40
2022-09-06T02:22:07.982Z,4.95
2022-09-06T02:24:37.314Z,4.95
2022-09-06T02:27:04.218Z,4.40
2022-09-06T02:29:30.819Z,4.87
2022-09-06T02:32:22.176Z,4.57
2022-09-06T02:34:51.262Z,4.38
2022-09-06T02:37:18.752Z,4.60
2022-09-06T02:39:45.368Z,4.60
2022-09-06T02:42:15.491Z,4.50
2022-09-06T02:44:42.023Z,5.20
2022-09-06T02:47:08.546Z,5.45
2022-09-06T02:49:35.130Z,5.35
2022-09-06T02:52:01.738Z,5.18
2022-09-06T02:54:28.184Z,5.40
2022-09-06T02:56:54.625Z,5.75
2022-09-06T02:59:21.171Z,6.05
2022-09-06T03:01:47.650Z,6.07
2022-09-06T03:04:14.202Z,6.45
2022-09-06T03:06:40.648Z,5.90
2022-09-06T03:09:07.161Z,7.03
2022-09-06T03:11:33.596Z,6.03
2022-09-06T03:14:00.049Z,6.15
2022-09-06T03:16:26.633Z,5.63
2022-09-06T03:18:53.116Z,5.80
2022-09-06T03:21:19.620Z,5.35
2022-09-06T03:23:46.303Z,5.55
2022-09-06T03:26:13.380Z,5.80
2022-09-06T03:28:39.961Z,5.88
2022-09-06T03:31:06.712Z,5.90
2022-09-06T03:33:33.260Z,5.35
2022-09-06T03:36:01.630Z,4.93
2022-09-06T03:38:29.156Z,5.30
2022-09-06T03:40:55.745Z,5.30
2022-09-06T03:43:24.432Z,5.27
2022-09-06T03:45:53.580Z,4.97
2022-09-06T03:48:21.910Z,5.10
2022-09-06T03:50:50.445Z,4.82
2022-09-06T03:53:18.281Z,5.28
2022-09-06T03:55:50.062Z,4.80
2022-09-06T03:58:18.359Z,4.75
2022-09-06T04:00:44.980Z,4.70
2022-09-06T04:03:11.893Z,4.90
2022-09-06T04:05:38.620Z,4.88
2022-09-06T04:08:05.907Z,3.90
2022-09-06T04:10:33.690Z,3.20
2022-09-06T04:13:00.199Z,3.15
2022-09-06T04:15:26.633Z,3.70
2022-09-06T04:17:53.112Z,4.40
2022-09-06T04:20:19.632Z,5.07
2022-09-06T04:22:46.100Z,5.30
2022-09-06T04:25:13.725Z,4.97
2022-09-06T04:27:40.265Z,4.32
2022-09-06T04:30:07.633Z,4.88
2022-09-06T04:32:34.177Z,4.50
2022-09-06T04:35:00.707Z,4.47
2022-09-06T04:37:27.188Z,4.60
2022-09-06T04:39:54.238Z,4.72
2022-09-06T04:42:20.816Z,4.57
2022-09-06T04:44:47.277Z,4.47
2022-09-06T04:47:15.419Z,4.72
2022-09-06T04:49:42.568Z,4.38
2022-09-06T04:52:09.371Z,4.07
2022-09-06T04:54:35.982Z,4.63
2022-09-06T04:57:02.874Z,4.33
2022-09-06T04:59:29.645Z,4.40
2022-09-06T05:01:56.201Z,4.25
2022-09-06T05:04:22.757Z,4.60
2022-09-06T05:06:49.392Z,5.18
2022-09-06T05:09:15.892Z,4.60
2022-09-06T05:11:42.345Z,5.32
2022-09-06T05:14:08.816Z,4.95
2022-09-06T05:16:35.438Z,4.65
2022-09-06T05:19:01.962Z,5.10
2022-09-06T05:21:28.467Z,4.97
2022-09-06T05:23:58.472Z,5.05
2022-09-06T05:26:25.580Z,4.75
2022-09-06T05:28:52.037Z,4.47
2022-09-06T05:31:30.196Z,4.60
2022-09-06T05:33:57.792Z,4.57
2022-09-06T05:36:26.014Z,5.05
2022-09-06T05:38:54.228Z,4.97
2022-09-06T05:41:21.789Z,4.30
2022-09-06T05:43:48.535Z,4.60
2022-09-06T05:46:16.582Z,5.03
2022-09-06T05:48:43.369Z,5.57
2022-09-06T05:51:12.773Z,5.18
2022-09-06T05:53:44.442Z,5.13
2022-09-06T05:56:13.141Z,5.25
2022-09-06T05:58:39.709Z,5.30
2022-09-06T06:01:21.262Z,5.05
2022-09-06T06:03:52.631Z,5.22
2022-09-06T06:06:19.659Z,4.95
2022-09-06T06:08:46.557Z,5.40
2022-09-06T06:11:13.594Z,5.40
2022-09-06T06:13:40.711Z,5.53
2022-09-06T06:16:08.710Z,5.78
2022-09-06T06:18:35.370Z,6.22
2022-09-06T06:21:13.793Z,5.55
2022-09-06T06:23:41.846Z,6.30
2022-09-06T06:26:09.997Z,5.95
2022-09-06T06:28:37.109Z,6.10
2022-09-06T06:31:05.450Z,6.63
2022-09-06T06:33:32.515Z,6.53
2022-09-06T06:36:07.795Z,6.33
2022-09-06T06:38:37.557Z,6.20
2022-09-06T06:41:06.996Z,6.72
2022-09-06T06:43:38.090Z,6.82
2022-09-06T06:46:10.130Z,6.95
2022-09-06T06:48:39.696Z,6.93
2022-09-06T06:51:06.618Z,6.68
2022-09-06T06:53:33.164Z,6.28
2022-09-06T06:56:00.147Z,7.00
2022-09-06T06:58:27.413Z,7.20
2022-09-06T07:00:54.145Z,7.20
2022-09-06T07:03:20.650Z,6.97
2022-09-06T07:08:34.532Z,7.53
2022-09-06T07:11:01.320Z,7.35
2022-09-06T07:13:27.895Z,8.07
2022-09-06T07:16:10.538Z,7.43
2022-09-06T07:18:41.980Z,7.85
2022-09-06T07:24:10.303Z,8.20
2022-09-06T07:26:39.542Z,8.27
2022-09-06T07:29:07.337Z,8.70
2022-09-06T07:34:21.989Z,8.93
2022-09-06T07:36:48.630Z,8.52
2022-09-06T07:39:15.380Z,9.27
2022-09-06T07:41:43.309Z,8.65
2022-09-06T07:44:09.870Z,8.57
2022-09-06T07:46:36.536Z,8.07
2022-09-06T07:49:06.763Z,8.30
2022-09-06T07:51:33.548Z,7.60
2022-09-06T07:54:29.208Z,8.40
2022-09-06T07:56:47.228Z,7.90
2022-09-06T07:59:13.804Z,7.63
2022-09-06T08:01:40.925Z,7.70
2022-09-06T08:04:12.838Z,7.73
2022-09-06T08:09:32.811Z,7.50
2022-09-06T08:11:59.379Z,7.78
2022-09-06T08:14:25.814Z,7.63
2022-09-06T08:16:52.318Z,7.10
2022-09-06T08:19:18.818Z,6.90
2022-09-06T08:21:45.329Z,7.05
2022-09-06T08:24:11.852Z,7.68
2022-09-06T08:26:40.722Z,7.25
2022-09-06T08:29:08.827Z,6.47
2022-09-06T08:31:38.399Z,6.72
2022-09-06T08:34:05.805Z,6.70
2022-09-06T08:36:33.606Z,6.65
2022-09-06T08:39:02.709Z,6.25
2022-09-06T08:41:52.514Z,6.67
2022-09-06T08:47:19.577Z,6.30
2022-09-06T08:49:48.684Z,6.80
2022-09-06T08:52:17.919Z,6.43
2022-09-06T08:55:19.088Z,5.57
2022-09-06T08:57:52.270Z,6.10
2022-09-06T09:00:20.055Z,5.47
2022-09-06T09:02:52.779Z,5.05
2022-09-06T09:05:25.552Z,4.90
2022-09-06T09:08:02.693Z,5.77
2022-09-06T09:10:32.495Z,4.95
2022-09-06T09:13:04.727Z,5.30
2022-09-06T09:15:31.283Z,5.03
2022-09-06T09:17:57.858Z,4.93
2022-09-06T09:20:24.457Z,5.17
2022-09-06T09:22:50.952Z,5.45
2022-09-06T09:25:23.896Z,4.60
2022-09-06T09:27:57.885Z,5.22
2022-09-06T09:33:38.792Z,5.13
2022-09-06T09:36:13.076Z,4.75
2022-09-06T09:38:53.187Z,4.50
2022-09-06T09:41:32.895Z,4.60
2022-09-06T09:44:04.852Z,5.00
2022-09-06T09:46:37.008Z,4.73
2022-09-06T09:49:03.517Z,5.82
2022-09-06T09:51:32.860Z,5.25
2022-09-06T09:54:03.711Z,5.45
2022-09-06T09:56:44.686Z,6.60
2022-09-06T09:59:30.453Z,6.00
2022-09-06T10:02:02.910Z,5.45
2022-09-06T10:04:44.227Z,6.55
2022-09-06T10:07:18.001Z,5.60
2022-09-06T10:10:06.289Z,5.97
2022-09-06T10:12:35.477Z,7.07
2022-09-06T10:15:07.029Z,5.93
2022-09-06T10:17:48.366Z,6.20
2022-09-06T10:20:16.451Z,5.60
2022-09-06T10:22:48.769Z,4.20
2022-09-06T10:25:21.320Z,3.80
2022-09-06T10:28:11.314Z,3.22
2022-09-06T10:30:55.260Z,2.97
2022-09-06T10:33:47.038Z,3.65
2022-09-06T10:36:19.030Z,3.40
2022-09-06T10:38:55.126Z,3.23
2022-09-06T10:41:49.176Z,3.15
2022-09-06T10:44:42.533Z,3.20
2022-09-06T10:47:14.950Z,2.80
2022-09-06T10:49:45.521Z,3.00
2022-09-06T10:52:19.020Z,2.00
2022-09-06T10:54:47.294Z,2.10
2022-09-06T11:00:20.406Z,2.80
2022-09-06T11:06:01.003Z,2.83
2022-09-06T11:08:57.762Z,2.67
2022-09-06T11:11:36.020Z,1.90
2022-09-06T11:14:11.468Z,2.05
2022-09-06T11:16:48.164Z,2.20
2022-09-06T11:19:27.391Z,2.93
2022-09-06T11:22:22.437Z,2.30
2022-09-06T11:25:11.543Z,2.10
2022-09-06T11:27:41.068Z,1.90
2022-09-06T11:30:15.450Z,2.22
2022-09-06T11:33:01.659Z,2.00
2022-09-06T11:35:32.515Z,2.10
2022-09-06T11:38:11.638Z,2.40
2022-09-06T11:40:43.245Z,2.35
2022-09-06T11:43:16.430Z,3.22
2022-09-06T11:45:50.667Z,2.60
2022-09-06T11:48:34.950Z,2.40
2022-09-06T11:51:06.571Z,2.47
2022-09-06T11:53:59.362Z,2.60
2022-09-06T11:56:39.956Z,2.80
2022-09-06T11:59:24.534Z,4.07
2022-09-06T12:01:59.966Z,2.97
2022-09-06T12:05:01.266Z,3.00
2022-09-06T12:07:30.007Z,3.70
2022-09-06T12:09:57.461Z,4.00
2022-09-06T12:12:50.774Z,3.80
2022-09-06T12:15:23.632Z,4.43
2022-09-06T12:17:50.191Z,4.25
2022-09-06T12:20:47.718Z,3.97
2022-09-06T12:23:36.011Z,3.72
2022-09-06T12:26:03.485Z,4.70
2022-09-06T12:28:34.709Z,5.15
2022-09-06T12:31:02.103Z,3.83
2022-09-06T12:33:33.461Z,3.85
2022-09-06T12:36:24.176Z,4.30
2022-09-06T12:39:12.092Z,3.80
2022-09-06T12:41:45.012Z,4.13
2022-09-06T12:44:14.968Z,4.30
2022-09-06T12:46:50.793Z,3.83
2022-09-06T12:49:22.370Z,3.20
2022-09-06T12:51:49.839Z,4.23
2022-09-06T12:54:25.022Z,4.55
2022-09-06T12:56:52.211Z,4.65
2022-09-06T12:59:21.344Z,4.10
2022-09-06T13:01:56.149Z,3.55
2022-09-06T13:04:32.161Z,3.97
2022-09-06T13:07:03.020Z,4.50
2022-09-06T13:09:31.457Z,3.65
2022-09-06T13:12:06.961Z,3.58
2022-09-06T13:14:34.793Z,3.03
2022-09-06T13:17:01.875Z,2.80
2022-09-06T13:19:31.172Z,2.92
2022-09-06T13:22:01.215Z,4.28
2022-09-06T13:24:33.723Z,4.07
2022-09-06T13:27:00.235Z,3.25
2022-09-06T13:29:31.767Z,3.90
2022-09-06T13:32:01.451Z,3.10
2022-09-06T13:34:30.994Z,4.57
2022-09-06T13:37:07.045Z,4.30
2022-09-06T13:39:34.902Z,4.28
2022-09-06T13:42:05.676Z,3.90
2022-09-06T13:44:34.463Z,3.20
2022-09-06T13:47:01.248Z,3.03
2022-09-06T13:49:28.431Z,2.85
2022-09-06T13:52:02.065Z,2.50
2022-09-06T13:54:29.832Z,2.60
2022-09-06T13:56:56.437Z,2.40
2022-09-06T13:59:24.697Z,3.08
2022-09-06T14:02:07.622Z,3.60
2022-09-06T14:04:34.445Z,3.10
2022-09-06T14:07:01.066Z,2.90
2022-09-06T14:09:27.594Z,3.20
2022-09-06T14:11:54.042Z,2.85
2022-09-06T14:14:20.943Z,2.15
2022-09-06T14:16:47.875Z,2.50
2022-09-06T14:19:15.080Z,2.20
2022-09-06T14:21:41.572Z,2.40
2022-09-06T14:24:08.113Z,2.20
2022-09-06T14:26:36.700Z,2.10
2022-09-06T14:29:03.953Z,2.72
2022-09-06T14:31:32.512Z,2.07
2022-09-06T14:33:59.642Z,2.15
2022-09-06T14:36:31.971Z,2.25
2022-09-06T14:38:59.698Z,1.65
2022-09-06T14:41:26.347Z,2.03
2022-09-06T14:43:55.637Z,2.03
2022-09-06T14:46:23.531Z,2.03
2022-09-06T14:49:00.433Z,2.28
2022-09-06T14:51:27.365Z,2.50
2022-09-06T14:53:57.693Z,2.55
2022-09-06T14:56:25.954Z,2.60
2022-09-06T14:58:57.069Z,2.45
2022-09-06T15:01:27.068Z,2.25
2022-09-06T15:03:56.292Z,2.58
2022-09-06T15:06:24.931Z,3.10
2022-09-06T15:08:54.625Z,2.50
2022-09-06T15:11:30.317Z,2.60
2022-09-06T15:13:58.379Z,2.30
2022-09-06T15:16:25.048Z,2.42
2022-09-06T15:18:51.641Z,2.42
2022-09-06T15:21:18.311Z,2.43
2022-09-06T15:23:44.984Z,2.28
2022-09-06T15:26:13.617Z,2.40
2022-09-06T15:28:42.367Z,2.50
2022-09-06T15:31:09.012Z,2.60
2022-09-06T15:33:37.118Z,2.63
2022-09-06T15:36:08.293Z,2.35
2022-09-06T15:38:41.294Z,2.80
2022-09-06T15:41:13.319Z,2.92
2022-09-06T15:43:46.898Z,2.75
2022-09-06T15:46:21.166Z,2.80
2022-09-06T15:48:50.011Z,2.83
2022-09-06T15:51:20.272Z,2.38
2022-09-06T15:53:47.312Z,2.38
2022-09-06T15:56:15.528Z,2.58
2022-09-06T15:58:42.189Z,2.50
2022-09-06T16:01:20.783Z,2.13
2022-09-06T16:03:53.277Z,2.40
2022-09-06T16:06:25.469Z,2.90
2022-09-06T16:09:19.790Z,2.70
2022-09-06T16:11:46.246Z,2.60
2022-09-06T16:14:14.584Z,2.97
2022-09-06T16:16:42.369Z,2.40
2022-09-06T16:19:10.441Z,2.92
2022-09-06T16:21:39.507Z,3.22
2022-09-06T16:24:10.770Z,3.10
2022-09-06T16:26:43.370Z,2.85
2022-09-06T16:29:11.311Z,3.25
2022-09-06T16:31:40.544Z,2.90
2022-09-06T16:34:09.525Z,2.60
2022-09-06T16:36:36.082Z,2.80
2022-09-06T16:39:03.334Z,2.95
2022-09-06T16:41:43.448Z,2.63
2022-09-06T16:44:16.177Z,2.45
2022-09-06T16:46:48.039Z,2.72
2022-09-06T16:49:17.139Z,2.70
2022-09-06T16:51:44.353Z,2.83
2022-09-06T16:54:10.885Z,2.72
2022-09-06T16:56:38.205Z,3.10
2022-09-06T16:59:07.069Z,3.03
2022-09-06T17:01:36.108Z,2.63
2022-09-06T17:04:03.833Z,2.80
2022-09-06T17:06:31.367Z,2.50
2022-09-06T17:08:58.549Z,2.88
2022-09-06T17:11:26.474Z,2.90
2022-09-06T17:13:54.821Z,2.43
2022-09-06T17:16:40.744Z,2.35
2022-09-06T17:19:09.162Z,2.50
2022-09-06T17:21:37.093Z,2.47
2022-09-06T17:24:05.573Z,2.55
2022-09-06T17:26:34.354Z,2.73
2022-09-06T17:29:01.384Z,2.45
2022-09-06T17:31:28.350Z,2.50
2022-09-06T17:33:54.955Z,2.60
2022-09-06T17:36:24.903Z,2.47
2022-09-06T17:38:53.508Z,2.33
2022-09-06T17:41:30.055Z,2.20
2022-09-06T17:43:58.648Z,3.33
2022-09-06T17:46:28.969Z,2.67
2022-09-06T17:48:56.487Z,2.50
2022-09-06T17:51:23.954Z,2.80
2022-09-06T17:53:50.572Z,2.47
2022-09-06T17:56:18.136Z,2.55
2022-09-06T17:58:53.489Z,3.53
2022-09-06T18:01:20.063Z,2.50
2022-09-06T18:03:47.741Z,2.57
2022-09-06T18:06:22.701Z,2.90
2022-09-06T18:08:50.960Z,2.78
2022-09-06T18:11:22.324Z,2.80
2022-09-06T18:13:57.316Z,2.53
2022-09-06T18:16:24.776Z,2.57
2022-09-06T18:18:53.998Z,2.70
2022-09-06T18:21:20.989Z,2.70
2022-09-06T18:23:47.827Z,2.75
2022-09-06T18:26:14.421Z,3.10
2022-09-06T18:28:40.991Z,3.00
2022-09-06T18:31:09.919Z,3.20
2022-09-06T18:33:38.259Z,4.20
2022-09-06T18:36:06.707Z,3.60
2022-09-06T18:38:35.164Z,3.45
2022-09-06T18:41:04.292Z,3.13
2022-09-06T18:43:33.429Z,3.45
2022-09-06T18:46:12.658Z,3.55
2022-09-06T18:48:40.248Z,3.30
2022-09-06T18:51:11.401Z,3.40
2022-09-06T18:53:43.988Z,3.33
2022-09-06T18:56:13.403Z,3.10
2022-09-06T18:58:40.445Z,3.20
2022-09-06T19:01:12.177Z,3.30
2022-09-06T19:03:40.380Z,3.30
2022-09-06T19:06:20.186Z,3.00
2022-09-06T19:08:48.005Z,3.30
2022-09-06T19:11:17.030Z,3.30
2022-09-06T19:13:44.969Z,2.97
2022-09-06T19:16:13.006Z,3.30
2022-09-06T19:18:40.616Z,2.80
2022-09-06T19:21:11.141Z,2.70
2022-09-06T19:23:41.173Z,2.80
2022-09-06T19:26:17.669Z,2.90
2022-09-06T19:28:48.933Z,2.90
2022-09-06T19:31:15.940Z,3.00
2022-09-06T19:33:44.319Z,3.40
2022-09-06T19:36:12.344Z,3.17
2022-09-06T19:39:02.406Z,3.30
2022-09-06T19:41:28.785Z,3.17
2022-09-06T19:43:56.675Z,3.90
2022-09-06T19:46:23.945Z,3.95
2022-09-06T19:48:52.070Z,4.10
2022-09-06T19:51:19.865Z,4.28
2022-09-06T19:53:54.785Z,4.53
2022-09-06T19:56:24.231Z,4.87
2022-09-06T19:58:56.087Z,4.47
2022-09-06T20:01:23.974Z,4.60
2022-09-06T20:03:51.135Z,4.07
2022-09-06T20:06:17.643Z,4.85
2022-09-06T20:08:44.235Z,4.60
2022-09-06T20:11:12.616Z,4.82
2022-09-06T20:13:39.686Z,4.22
2022-09-06T20:16:08.079Z,4.63
2022-09-06T20:18:35.603Z,5.00
2022-09-06T20:21:02.348Z,4.63
2022-09-06T20:23:30.410Z,4.80
2022-09-06T20:26:03.534Z,4.50
2022-09-06T20:28:30.369Z,4.45
2022-09-06T20:31:11.706Z,4.40
2022-09-06T20:33:38.295Z,4.73
2022-09-06T20:36:07.388Z,4.28
2022-09-06T20:38:36.294Z,4.78
2022-09-06T20:41:06.498Z,4.95
2022-09-06T20:43:36.473Z,5.05
2022-09-06T20:46:11.470Z,4.50
2022-09-06T20:48:43.627Z,4.40
2022-09-06T20:51:19.006Z,4.63
2022-09-06T20:53:48.443Z,4.22
2022-09-06T20:56:19.875Z,4.88
2022-09-06T20:58:51.459Z,4.47
2022-09-06T21:01:22.452Z,4.95
2022-09-06T21:03:51.619Z,5.38
2022-09-06T21:06:18.970Z,5.80
2022-09-06T21:08:45.510Z,5.93
2022-09-06T21:11:12.350Z,6.00
2022-09-06T21:13:39.376Z,6.07
2022-09-06T21:16:06.471Z,5.80
2022-09-06T21:18:34.168Z,5.95
2022-09-06T21:21:07.852Z,6.03
2022-09-06T21:23:36.978Z,5.90
2022-09-06T21:26:08.471Z,5.90
2022-09-06T21:28:36.767Z,5.72
2022-09-06T21:31:04.492Z,5.72
2022-09-06T21:33:33.141Z,6.20
2022-09-06T21:36:06.962Z,5.77
2022-09-06T21:38:34.789Z,6.40
2022-09-06T21:41:02.077Z,6.20
2022-09-06T21:43:28.766Z,5.85
2022-09-06T21:45:55.257Z,6.05
2022-09-06T21:48:21.712Z,6.37
2022-09-06T21:50:48.573Z,5.65
2022-09-06T21:53:15.571Z,5.97
2022-09-06T21:55:42.299Z,5.30
2022-09-06T21:58:09.742Z,5.22
2022-09-06T22:00:36.854Z,4.37
2022-09-06T22:03:03.807Z,4.30
2022-09-06T22:05:30.405Z,3.78
2022-09-06T22:07:57.071Z,3.55
2022-09-06T22:10:24.352Z,3.20
2022-09-06T22:12:51.230Z,3.10
2022-09-06T22:15:21.409Z,2.95
2022-09-06T22:17:49.162Z,3.05
2022-09-06T22:20:15.708Z,3.42
2022-09-06T22:22:45.794Z,3.15
2022-09-06T22:25:13.257Z,3.27
2022-09-06T22:27:40.351Z,3.28
2022-09-06T22:30:07.804Z,4.88
2022-09-06T22:32:34.282Z,7.28
2022-09-06T22:35:00.821Z,7.10
2022-09-06T22:37:27.286Z,6.43
2022-09-06T22:39:53.820Z,5.85
2022-09-06T22:42:20.341Z,4.93
2022-09-06T22:44:46.796Z,3.00
2022-09-06T22:47:13.249Z,2.80
2022-09-06T22:49:39.701Z,2.10
2022-09-06T22:52:06.148Z,1.50
2022-09-06T22:54:33.058Z,1.98
2022-09-06T22:57:00.286Z,1.45
2022-09-06T22:59:26.762Z,1.30
2022-09-06T23:01:53.193Z,1.30
2022-09-06T23:04:19.739Z,1.20
2022-09-06T23:06:46.336Z,1.42
2022-09-06T23:09:12.997Z,1.48
2022-09-06T23:11:39.607Z,1.70
2022-09-06T23:14:06.184Z,1.83
2022-09-06T23:16:32.733Z,1.60
2022-09-06T23:18:59.208Z,1.30
2022-09-06T23:21:26.496Z,1.55
2022-09-06T23:23:55.336Z,1.40
2022-09-06T23:26:24.987Z,1.77
2022-09-06T23:28:56.264Z,1.70
2022-09-06T23:31:28.207Z,1.90
2022-09-06T23:33:59.216Z,2.05
2022-09-06T23:36:27.244Z,1.85
2022-09-06T23:38:53.745Z,2.00
2022-09-06T23:41:20.457Z,1.98
2022-09-06T23:43:46.988Z,1.88
2022-09-06T23:46:14.877Z,1.75
2022-09-06T23:48:42.860Z,1.67
2022-09-06T23:51:10.055Z,1.70
2022-09-06T23:53:36.719Z,1.80
2022-09-06T23:56:03.958Z,1.63
2022-09-06T23:58:31.036Z,1.67
